createdAt,value
2022-11-29T00:00:08.699Z,51
2022-11-29T00:01:10.659Z,51
2022-11-29T00:02:11.827Z,51
2022-11-29T00:03:13.780Z,51
2022-11-29T00:04:15.688Z,51
2022-11-29T00:05:17.680Z,51
2022-11-29T00:06:19.699Z,51
2022-11-29T00:07:21.774Z,53
2022-11-29T00:08:23.658Z,50
2022-11-29T00:09:25.662Z,52
2022-11-29T00:10:27.680Z,51
2022-11-29T00:11:29.781Z,52
2022-11-29T00:12:31.699Z,51
2022-11-29T00:13:33.618Z,51
2022-11-29T00:14:34.619Z,51
2022-11-29T00:15:35.619Z,51
2022-11-29T00:16:36.681Z,50
2022-11-29T00:17:38.746Z,50
2022-11-29T00:18:40.660Z,51
2022-11-29T00:19:42.739Z,51
2022-11-29T00:20:44.738Z,52
2022-11-29T00:21:46.580Z,51
2022-11-29T00:22:47.606Z,50
2022-11-29T00:23:48.700Z,50
2022-11-29T00:24:49.578Z,50
2022-11-29T00:25:50.600Z,49
2022-11-29T00:26:51.639Z,50
2022-11-29T00:27:52.640Z,50
2022-11-29T00:28:53.622Z,50
2022-11-29T00:29:54.578Z,50
2022-11-29T00:30:55.697Z,50
2022-11-29T00:31:56.599Z,49
2022-11-29T00:32:57.620Z,49
2022-11-29T00:33:58.718Z,49
2022-11-29T00:35:04.056Z,48
2022-11-29T00:36:02.779Z,48
2022-11-29T00:37:04.699Z,49
2022-11-29T00:38:06.735Z,50
2022-11-29T00:39:08.699Z,50
2022-11-29T00:40:10.639Z,48
2022-11-29T00:41:11.679Z,48
2022-11-29T00:42:12.639Z,50
2022-11-29T00:43:13.660Z,50
2022-11-29T00:44:20.038Z,50
2022-11-29T00:45:17.659Z,50
2022-11-29T00:46:18.723Z,49
2022-11-29T00:47:20.599Z,49
2022-11-29T00:48:21.641Z,50
2022-11-29T00:49:22.622Z,50
2022-11-29T00:50:23.630Z,51
2022-11-29T00:51:24.618Z,51
2022-11-29T00:52:25.640Z,50
2022-11-29T00:53:26.663Z,50
2022-11-29T00:54:27.639Z,50
2022-11-29T00:55:28.723Z,50
2022-11-29T00:56:30.700Z,50
2022-11-29T00:57:32.720Z,50
2022-11-29T00:58:34.670Z,50
2022-11-29T00:59:36.738Z,51
2022-11-29T01:00:38.739Z,51
2022-11-29T01:01:40.762Z,51
2022-11-29T01:02:41.881Z,51
2022-11-29T01:03:43.699Z,51
2022-11-29T01:04:45.940Z,51
2022-11-29T01:05:47.703Z,53
2022-11-29T01:06:49.659Z,52
2022-11-29T01:07:50.671Z,52
2022-11-29T01:08:51.628Z,52
2022-11-29T01:09:52.638Z,52
2022-11-29T01:10:53.639Z,51
2022-11-29T01:11:54.622Z,52
2022-11-29T01:12:55.679Z,51
2022-11-29T01:13:56.699Z,51
2022-11-29T01:14:57.619Z,52
2022-11-29T01:15:58.679Z,52
2022-11-29T01:17:00.735Z,52
2022-11-29T01:18:02.702Z,51
2022-11-29T01:19:04.760Z,52
2022-11-29T01:20:06.700Z,52
2022-11-29T01:21:08.626Z,52
2022-11-29T01:22:09.679Z,52
2022-11-29T01:23:10.698Z,51
2022-11-29T01:24:11.697Z,51
2022-11-29T01:25:12.740Z,51
2022-11-29T01:26:14.720Z,51
2022-11-29T01:27:16.620Z,51
2022-11-29T01:28:17.649Z,52
2022-11-29T01:29:18.681Z,51
2022-11-29T01:30:19.739Z,51
2022-11-29T01:31:21.680Z,51
2022-11-29T01:32:22.660Z,52
2022-11-29T01:33:24.799Z,51
2022-11-29T01:34:26.639Z,51
2022-11-29T01:35:27.627Z,50
2022-11-29T01:36:28.704Z,51
2022-11-29T01:37:30.739Z,52
2022-11-29T01:38:32.679Z,52
2022-11-29T01:39:34.769Z,52
2022-11-29T01:40:36.719Z,52
2022-11-29T01:41:38.777Z,51
2022-11-29T01:42:40.667Z,50
2022-11-29T01:43:41.621Z,50
2022-11-29T01:44:43.060Z,50
2022-11-29T01:45:43.666Z,51
2022-11-29T01:46:45.739Z,51
2022-11-29T01:47:47.778Z,50
2022-11-29T01:48:49.601Z,49
2022-11-29T01:49:50.719Z,49
2022-11-29T01:50:51.599Z,50
2022-11-29T01:51:52.680Z,49
2022-11-29T01:52:53.650Z,49
2022-11-29T01:53:54.639Z,49
2022-11-29T01:54:55.704Z,48
2022-11-29T01:55:56.829Z,49
2022-11-29T01:56:58.637Z,49
2022-11-29T01:58:00.819Z,49
2022-11-29T01:59:02.699Z,49
2022-11-29T02:00:04.918Z,48
2022-11-29T02:01:06.721Z,49
2022-11-29T02:02:07.741Z,48
2022-11-29T02:03:08.647Z,49
2022-11-29T02:06:56.729Z,47
2022-11-29T02:07:57.716Z,47
2022-11-29T02:08:58.627Z,48
2022-11-29T02:10:01.145Z,48
2022-11-29T02:11:02.754Z,48
2022-11-29T02:12:04.780Z,48
2022-11-29T02:13:06.740Z,48
2022-11-29T02:14:08.720Z,48
2022-11-29T02:15:10.756Z,47
2022-11-29T02:16:12.804Z,46
2022-11-29T02:17:14.720Z,47
2022-11-29T02:18:16.800Z,47
2022-11-29T02:19:18.636Z,47
2022-11-29T02:20:19.719Z,48
2022-11-29T02:21:20.719Z,47
2022-11-29T02:22:21.618Z,46
2022-11-29T02:23:22.659Z,47
2022-11-29T02:24:23.620Z,47
2022-11-29T02:25:24.709Z,47
2022-11-29T02:26:25.702Z,46
2022-11-29T02:27:26.719Z,46
2022-11-29T02:28:27.640Z,46
2022-11-29T02:29:28.628Z,45
2022-11-29T02:30:29.764Z,45
2022-11-29T02:31:31.801Z,45
2022-11-29T02:32:33.780Z,46
2022-11-29T02:33:35.867Z,46
2022-11-29T02:34:37.675Z,47
2022-11-29T02:35:38.799Z,46
2022-11-29T02:36:40.706Z,46
2022-11-29T02:37:41.648Z,47
2022-11-29T02:38:42.780Z,47
2022-11-29T02:39:44.798Z,47
2022-11-29T02:40:46.807Z,46
2022-11-29T02:41:48.711Z,48
2022-11-29T02:42:55.955Z,47
2022-11-29T02:43:52.819Z,46
2022-11-29T02:44:54.718Z,47
2022-11-29T02:45:55.679Z,47
2022-11-29T02:46:56.700Z,48
2022-11-29T02:47:58.821Z,48
2022-11-29T02:49:00.903Z,48
2022-11-29T02:50:02.866Z,47
2022-11-29T02:51:04.801Z,48
2022-11-29T02:52:06.739Z,47
2022-11-29T02:53:08.702Z,47
2022-11-29T02:54:09.720Z,48
2022-11-29T02:55:10.699Z,48
2022-11-29T02:56:11.768Z,48
2022-11-29T02:57:12.699Z,46
2022-11-29T02:58:13.679Z,46
2022-11-29T02:59:14.740Z,46
2022-11-29T03:00:16.822Z,46
2022-11-29T03:01:18.940Z,46
2022-11-29T03:02:20.716Z,45
2022-11-29T03:03:21.663Z,45
2022-11-29T03:04:22.743Z,46
2022-11-29T03:05:23.756Z,45
2022-11-29T03:06:24.740Z,46
2022-11-29T03:07:25.705Z,46
2022-11-29T03:08:26.728Z,46
2022-11-29T03:09:27.739Z,46
2022-11-29T03:10:28.679Z,46
2022-11-29T03:11:29.842Z,45
2022-11-29T03:12:31.780Z,46
2022-11-29T03:13:33.759Z,47
2022-11-29T03:14:35.921Z,47
2022-11-29T03:15:37.840Z,48
2022-11-29T03:16:43.184Z,48
2022-11-29T03:17:41.700Z,47
2022-11-29T03:18:42.745Z,47
2022-11-29T03:19:43.730Z,48
2022-11-29T03:20:45.779Z,47
2022-11-29T03:21:47.759Z,48
2022-11-29T03:22:49.919Z,48
2022-11-29T03:23:51.759Z,49
2022-11-29T03:24:53.699Z,48
2022-11-29T03:25:54.704Z,48
2022-11-29T03:26:55.748Z,48
2022-11-29T03:27:56.740Z,50
2022-11-29T03:28:57.718Z,49
2022-11-29T03:29:58.700Z,50
2022-11-29T03:30:59.874Z,50
2022-11-29T03:32:01.765Z,50
2022-11-29T03:33:03.861Z,51
2022-11-29T03:34:06.241Z,52
2022-11-29T03:35:07.799Z,51
2022-11-29T03:36:09.879Z,50
2022-11-29T03:37:11.680Z,50
2022-11-29T03:38:12.779Z,50
2022-11-29T03:39:13.739Z,51
2022-11-29T03:40:14.822Z,50
2022-11-29T03:41:16.779Z,50
2022-11-29T03:42:17.763Z,49
2022-11-29T03:43:18.739Z,48
2022-11-29T03:44:19.738Z,47
2022-11-29T03:45:20.719Z,47
2022-11-29T03:46:21.841Z,47
2022-11-29T03:47:22.776Z,46
2022-11-29T03:48:23.804Z,46
2022-11-29T03:49:24.759Z,46
2022-11-29T03:50:25.737Z,46
2022-11-29T03:51:26.760Z,46
2022-11-29T03:52:27.789Z,47
2022-11-29T03:53:29.741Z,47
2022-11-29T03:54:31.779Z,45
2022-11-29T03:55:33.799Z,45
2022-11-29T03:56:35.784Z,45
2022-11-29T03:57:37.725Z,45
2022-11-29T03:58:38.720Z,45
2022-11-29T03:59:40.798Z,45
2022-11-29T04:00:42.721Z,44
2022-11-29T04:01:43.814Z,45
2022-11-29T04:02:45.820Z,44
2022-11-29T04:03:47.779Z,44
2022-11-29T04:04:49.723Z,44
2022-11-29T04:05:51.818Z,44
2022-11-29T04:06:53.792Z,45
2022-11-29T04:07:56.019Z,44
2022-11-29T04:08:57.801Z,44
2022-11-29T04:09:59.786Z,44
2022-11-29T04:11:01.819Z,44
2022-11-29T04:12:03.860Z,44
2022-11-29T04:13:06.278Z,44
2022-11-29T04:14:07.700Z,44
2022-11-29T04:15:11.572Z,44
2022-11-29T04:16:10.837Z,44
2022-11-29T04:17:12.859Z,44
2022-11-29T04:18:14.799Z,42
2022-11-29T04:19:16.879Z,42
2022-11-29T04:20:18.711Z,42
2022-11-29T04:21:19.679Z,42
2022-11-29T04:22:20.718Z,42
2022-11-29T04:23:21.701Z,42
2022-11-29T04:24:23.219Z,42
2022-11-29T04:25:24.738Z,42
2022-11-29T04:26:29.723Z,42
2022-11-29T04:27:27.699Z,42
2022-11-29T04:28:28.746Z,42
2022-11-29T04:29:29.779Z,42
2022-11-29T04:30:31.859Z,42
2022-11-29T04:31:33.901Z,41
2022-11-29T04:32:35.819Z,42
2022-11-29T04:33:37.800Z,42
2022-11-29T04:34:39.780Z,44
2022-11-29T04:35:40.736Z,42
2022-11-29T04:36:41.741Z,41
2022-11-29T04:37:42.739Z,41
2022-11-29T04:38:43.754Z,41
2022-11-29T04:39:44.757Z,42
2022-11-29T04:40:46.840Z,41
2022-11-29T04:41:48.900Z,41
2022-11-29T04:42:50.738Z,42
2022-11-29T04:43:51.789Z,41
2022-11-29T04:44:52.860Z,42
2022-11-29T04:45:54.799Z,42
2022-11-29T04:46:56.758Z,42
2022-11-29T04:47:57.786Z,42
2022-11-29T04:48:58.700Z,42
2022-11-29T04:49:59.803Z,41
2022-11-29T04:51:01.918Z,42
2022-11-29T04:52:03.840Z,42
2022-11-29T04:53:06.239Z,41
2022-11-29T04:54:07.815Z,42
2022-11-29T04:55:09.759Z,42
2022-11-29T04:56:10.760Z,42
2022-11-29T04:57:11.765Z,42
2022-11-29T04:58:12.724Z,42
2022-11-29T04:59:13.768Z,42
2022-11-29T05:00:14.694Z,42
2022-11-29T05:01:16.907Z,41
2022-11-29T05:02:18.960Z,42
2022-11-29T05:03:20.831Z,46
2022-11-29T05:04:22.739Z,45
2022-11-29T05:05:23.742Z,45
2022-11-29T05:06:24.721Z,44
2022-11-29T05:07:25.798Z,42
2022-11-29T05:08:26.742Z,42
2022-11-29T05:09:27.704Z,41
2022-11-29T05:10:28.760Z,42
2022-11-29T05:11:29.712Z,42
2022-11-29T05:12:31.859Z,41
2022-11-29T05:13:33.899Z,41
2022-11-29T05:14:35.808Z,41
2022-11-29T05:15:37.850Z,42
2022-11-29T05:16:39.800Z,42
2022-11-29T05:17:41.747Z,42
2022-11-29T05:18:42.748Z,41
2022-11-29T05:19:43.780Z,42
2022-11-29T05:20:44.731Z,41
2022-11-29T05:21:45.800Z,41
2022-11-29T05:22:47.739Z,41
2022-11-29T05:23:48.718Z,41
2022-11-29T05:24:49.764Z,41
2022-11-29T05:25:51.741Z,41
2022-11-29T05:26:52.727Z,40
2022-11-29T05:27:53.778Z,41
2022-11-29T05:28:54.699Z,41
2022-11-29T05:29:55.846Z,41
2022-11-29T05:30:57.842Z,42
2022-11-29T05:31:58.718Z,41
2022-11-29T05:32:59.738Z,41
2022-11-29T05:34:01.916Z,41
2022-11-29T05:35:03.900Z,42
2022-11-29T05:36:06.359Z,41
2022-11-29T05:37:07.859Z,41
2022-11-29T05:38:09.841Z,41
2022-11-29T05:39:11.939Z,41
2022-11-29T05:40:13.802Z,41
2022-11-29T05:41:14.840Z,41
2022-11-29T05:42:16.869Z,41
2022-11-29T05:43:18.918Z,41
2022-11-29T05:44:20.828Z,41
2022-11-29T05:45:22.886Z,42
2022-11-29T05:46:24.914Z,41
2022-11-29T05:47:31.154Z,41
2022-11-29T05:48:27.761Z,40
2022-11-29T05:49:28.786Z,40
2022-11-29T05:50:29.745Z,41
2022-11-29T05:51:31.238Z,41
2022-11-29T05:52:32.829Z,41
2022-11-29T05:53:34.898Z,41
2022-11-29T05:54:36.905Z,40
2022-11-29T05:55:38.871Z,40
2022-11-29T05:56:41.759Z,39
2022-11-29T05:57:42.784Z,41
2022-11-29T05:58:45.420Z,41
2022-11-29T05:59:46.800Z,41
2022-11-29T06:00:47.758Z,40
2022-11-29T06:01:48.800Z,40
2022-11-29T06:02:49.831Z,42
2022-11-29T06:03:51.902Z,40
2022-11-29T06:04:53.856Z,40
2022-11-29T06:05:55.879Z,41
2022-11-29T06:06:57.918Z,41
2022-11-29T06:07:59.976Z,41
2022-11-29T06:09:01.840Z,41
2022-11-29T06:10:03.454Z,41
2022-11-29T06:11:04.940Z,41
2022-11-29T06:12:07.119Z,41
2022-11-29T06:13:08.900Z,41
2022-11-29T06:14:10.878Z,41
2022-11-29T06:15:12.880Z,42
2022-11-29T06:16:15.006Z,42
2022-11-29T06:17:16.899Z,42
2022-11-29T06:18:18.863Z,42
2022-11-29T06:19:20.858Z,42
2022-11-29T06:20:21.919Z,42
2022-11-29T06:21:23.845Z,42
2022-11-29T06:22:25.917Z,42
2022-11-29T06:23:28.591Z,42
2022-11-29T06:24:30.779Z,42
2022-11-29T06:25:31.859Z,44
2022-11-29T06:26:33.883Z,44
2022-11-29T06:27:35.941Z,42
2022-11-29T06:28:37.940Z,42
2022-11-29T06:29:39.940Z,42
2022-11-29T06:30:41.941Z,45
2022-11-29T06:31:43.926Z,45
2022-11-29T06:32:44.784Z,45
2022-11-29T06:33:46.218Z,44
2022-11-29T06:34:48.687Z,44
2022-11-29T06:35:50.437Z,42
2022-11-29T06:36:51.756Z,44
2022-11-29T06:37:52.783Z,45
2022-11-29T06:38:53.880Z,45
2022-11-29T06:39:55.878Z,45
2022-11-29T06:41:01.740Z,44
2022-11-29T06:41:59.660Z,45
2022-11-29T06:43:00.979Z,46
2022-11-29T06:44:02.919Z,46
2022-11-29T06:45:04.951Z,45
2022-11-29T06:46:06.979Z,46
2022-11-29T06:47:08.903Z,46
2022-11-29T06:48:10.841Z,46
2022-11-29T06:49:11.717Z,46
2022-11-29T06:50:12.859Z,47
2022-11-29T06:51:14.979Z,45
2022-11-29T06:52:16.979Z,45
2022-11-29T06:53:18.860Z,44
2022-11-29T06:54:20.919Z,45
2022-11-29T06:55:22.939Z,47
2022-11-29T06:56:24.980Z,47
2022-11-29T06:57:26.799Z,46
2022-11-29T06:58:31.537Z,48
2022-11-29T06:59:28.888Z,47
2022-11-29T07:00:30.988Z,48
2022-11-29T07:01:32.995Z,81
2022-11-29T07:02:34.974Z,82
2022-11-29T07:03:36.859Z,50
2022-11-29T07:04:41.258Z,47
2022-11-29T07:05:42.860Z,45
2022-11-29T07:06:43.845Z,41
2022-11-29T07:07:44.878Z,74
2022-11-29T07:08:45.899Z,61
2022-11-29T07:09:46.808Z,47
2022-11-29T07:10:47.960Z,42
2022-11-29T07:11:49.839Z,41
2022-11-29T07:12:50.819Z,41
2022-11-29T07:13:51.858Z,42
2022-11-29T07:14:52.899Z,41
2022-11-29T07:15:55.043Z,41
2022-11-29T07:16:57.542Z,41
2022-11-29T07:17:57.905Z,41
2022-11-29T07:18:58.860Z,42
2022-11-29T07:20:00.168Z,41
2022-11-29T07:21:02.100Z,41
2022-11-29T07:22:04.012Z,39
2022-11-29T07:23:05.940Z,41
2022-11-29T07:24:08.179Z,44
2022-11-29T07:25:09.872Z,47
2022-11-29T07:26:11.845Z,48
2022-11-29T07:27:12.920Z,52
2022-11-29T07:28:14.878Z,69
2022-11-29T07:29:16.998Z,62
2022-11-29T07:30:19.496Z,55
2022-11-29T07:31:20.973Z,64
2022-11-29T07:32:22.818Z,53
2022-11-29T07:33:24.046Z,51
2022-11-29T07:34:25.858Z,50
2022-11-29T07:35:26.781Z,46
2022-11-29T07:36:27.799Z,42
2022-11-29T07:37:28.920Z,44
2022-11-29T07:38:30.840Z,44
2022-11-29T07:39:32.039Z,44
2022-11-29T07:40:37.518Z,44
2022-11-29T07:41:35.939Z,42
2022-11-29T07:42:37.995Z,41
2022-11-29T07:43:39.941Z,41
2022-11-29T07:44:41.841Z,41
2022-11-29T07:45:42.796Z,40
2022-11-29T07:46:43.939Z,41
2022-11-29T07:47:45.098Z,42
2022-11-29T07:48:48.036Z,42
2022-11-29T07:49:50.599Z,41
2022-11-29T07:50:51.799Z,39
2022-11-29T07:51:52.887Z,41
2022-11-29T07:52:54.889Z,40
2022-11-29T07:53:56.943Z,39
2022-11-29T07:54:58.842Z,39
2022-11-29T07:56:00.241Z,39
2022-11-29T07:57:01.941Z,39
2022-11-29T07:58:03.979Z,38
2022-11-29T07:59:05.985Z,40
2022-11-29T08:00:07.980Z,39
2022-11-29T08:01:10.058Z,38
2022-11-29T08:02:12.085Z,39
2022-11-29T08:03:13.059Z,38
2022-11-29T08:04:15.082Z,38
2022-11-29T08:05:17.181Z,41
2022-11-29T08:06:19.226Z,40
2022-11-29T08:07:21.590Z,41
2022-11-29T08:08:22.887Z,39
2022-11-29T08:09:23.878Z,39
2022-11-29T08:10:24.871Z,37
2022-11-29T08:11:25.859Z,37
2022-11-29T08:12:26.859Z,39
2022-11-29T08:13:27.859Z,41
2022-11-29T08:14:28.878Z,40
2022-11-29T08:15:30.961Z,39
2022-11-29T08:16:32.836Z,38
2022-11-29T08:17:33.833Z,40
2022-11-29T08:18:35.900Z,42
2022-11-29T08:19:38.056Z,41
2022-11-29T08:20:40.520Z,41
2022-11-29T08:21:42.035Z,42
2022-11-29T08:22:43.901Z,41
2022-11-29T08:23:46.210Z,39
2022-11-29T08:24:48.322Z,39
2022-11-29T08:25:49.981Z,40
2022-11-29T08:26:51.881Z,41
2022-11-29T08:27:52.919Z,42
2022-11-29T08:28:53.847Z,41
2022-11-29T08:29:55.268Z,42
2022-11-29T08:30:57.067Z,42
2022-11-29T08:31:59.074Z,42
2022-11-29T08:33:01.272Z,41
2022-11-29T08:34:03.259Z,41
2022-11-29T08:35:05.065Z,41
2022-11-29T08:36:07.600Z,41
2022-11-29T08:37:08.839Z,42
2022-11-29T08:38:10.483Z,44
2022-11-29T08:39:12.748Z,44
2022-11-29T08:40:13.861Z,41
2022-11-29T08:41:14.927Z,40
2022-11-29T08:42:16.840Z,40
2022-11-29T08:43:17.967Z,42
2022-11-29T08:44:25.008Z,44
2022-11-29T08:45:27.036Z,40
2022-11-29T08:46:28.970Z,40
2022-11-29T08:47:30.879Z,41
2022-11-29T08:48:32.767Z,41
2022-11-29T08:49:33.919Z,41
2022-11-29T08:50:35.943Z,44
2022-11-29T08:51:37.904Z,41
2022-11-29T08:52:39.873Z,41
2022-11-29T08:53:41.970Z,40
2022-11-29T08:54:44.312Z,41
2022-11-29T08:55:44.898Z,42
2022-11-29T08:57:46.824Z,41
2022-11-29T08:58:47.879Z,41
2022-11-29T08:59:48.879Z,42
2022-11-29T09:00:50.019Z,44
2022-11-29T09:01:52.432Z,46
2022-11-29T09:02:54.417Z,44
2022-11-29T09:03:55.941Z,41
2022-11-29T09:04:57.856Z,40
2022-11-29T09:05:59.435Z,42
2022-11-29T09:07:00.937Z,41
2022-11-29T09:08:02.887Z,41
2022-11-29T09:09:05.100Z,42
2022-11-29T09:10:07.014Z,42
2022-11-29T09:11:09.175Z,42
2022-11-29T09:12:10.921Z,41
2022-11-29T09:13:12.816Z,41
2022-11-29T09:14:13.891Z,42
2022-11-29T09:15:14.887Z,42
2022-11-29T09:16:15.899Z,41
2022-11-29T09:17:17.962Z,42
2022-11-29T09:18:19.847Z,41
2022-11-29T09:19:20.887Z,42
2022-11-29T09:20:21.944Z,41
2022-11-29T09:21:23.229Z,44
2022-11-29T09:22:24.921Z,41
2022-11-29T09:23:26.901Z,41
2022-11-29T09:24:27.893Z,40
2022-11-29T09:25:28.926Z,39
2022-11-29T09:26:30.320Z,39
2022-11-29T09:27:32.503Z,39
2022-11-29T09:28:33.820Z,40
2022-11-29T09:29:34.920Z,38
2022-11-29T09:30:35.830Z,37
2022-11-29T09:31:37.036Z,37
2022-11-29T09:32:38.948Z,37
2022-11-29T09:33:40.924Z,37
2022-11-29T09:34:43.258Z,39
2022-11-29T09:35:44.900Z,40
2022-11-29T09:36:46.140Z,39
2022-11-29T09:37:46.964Z,38
2022-11-29T09:38:49.723Z,38
2022-11-29T09:39:50.953Z,40
2022-11-29T09:40:53.514Z,41
2022-11-29T09:41:55.101Z,40
2022-11-29T09:42:56.821Z,40
2022-11-29T09:43:58.100Z,40
2022-11-29T09:44:59.984Z,39
2022-11-29T09:46:02.177Z,39
2022-11-29T09:47:04.001Z,39
2022-11-29T09:48:06.039Z,39
2022-11-29T09:49:08.262Z,41
2022-11-29T09:50:09.962Z,42
2022-11-29T09:51:10.939Z,42
2022-11-29T09:52:12.908Z,42
2022-11-29T09:53:13.921Z,39
2022-11-29T09:54:14.923Z,40
2022-11-29T09:55:15.959Z,41
2022-11-29T09:56:17.979Z,42
2022-11-29T09:57:20.071Z,42
2022-11-29T09:58:22.107Z,40
2022-11-29T09:59:23.879Z,42
2022-11-29T10:00:24.989Z,41
2022-11-29T10:01:27.134Z,39
2022-11-29T10:02:29.017Z,40
2022-11-29T10:03:29.946Z,39
2022-11-29T10:04:30.976Z,38
2022-11-29T10:05:32.939Z,40
2022-11-29T10:06:33.860Z,39
2022-11-29T10:07:35.033Z,39
2022-11-29T10:08:36.961Z,38
2022-11-29T10:09:38.919Z,39
2022-11-29T10:10:40.990Z,41
2022-11-29T10:11:42.979Z,39
2022-11-29T10:12:44.960Z,40
2022-11-29T10:13:47.318Z,40
2022-11-29T10:14:49.879Z,40
2022-11-29T10:15:52.080Z,39
2022-11-29T10:16:53.955Z,39
2022-11-29T10:17:54.916Z,38
2022-11-29T10:18:56.019Z,38
2022-11-29T10:19:57.920Z,38
2022-11-29T10:20:58.980Z,39
2022-11-29T10:21:59.959Z,39
2022-11-29T10:23:00.989Z,40
2022-11-29T10:24:03.499Z,37
2022-11-29T10:25:04.979Z,38
2022-11-29T10:26:06.959Z,38
2022-11-29T10:27:07.919Z,37
2022-11-29T10:28:08.941Z,39
2022-11-29T10:29:10.300Z,40
2022-11-29T10:30:12.019Z,39
2022-11-29T10:31:13.975Z,40
2022-11-29T10:32:14.945Z,38
2022-11-29T10:33:16.960Z,39
2022-11-29T10:34:18.942Z,39
2022-11-29T10:35:19.919Z,39
2022-11-29T10:36:21.022Z,40
2022-11-29T10:37:23.020Z,42
2022-11-29T10:38:32.479Z,41
2022-11-29T10:39:27.019Z,40
2022-11-29T10:40:28.969Z,39
2022-11-29T10:41:29.896Z,38
2022-11-29T10:42:30.947Z,39
2022-11-29T10:43:31.979Z,38
2022-11-29T10:44:34.061Z,38
2022-11-29T10:45:36.036Z,39
2022-11-29T10:46:38.100Z,39
2022-11-29T10:47:39.954Z,40
2022-11-29T10:48:40.980Z,39
2022-11-29T10:49:42.938Z,39
2022-11-29T10:50:43.911Z,39
2022-11-29T10:51:44.920Z,41
2022-11-29T10:52:46.039Z,41
2022-11-29T10:53:48.110Z,41
2022-11-29T10:54:49.948Z,40
2022-11-29T10:55:50.978Z,41
2022-11-29T10:56:51.919Z,44
2022-11-29T10:57:52.958Z,44
2022-11-29T10:58:54.279Z,45
2022-11-29T10:59:56.288Z,40
2022-11-29T11:00:58.098Z,40
2022-11-29T11:01:59.987Z,40
2022-11-29T11:03:00.921Z,39
2022-11-29T11:04:02.159Z,39
2022-11-29T11:05:03.955Z,40
2022-11-29T11:06:05.039Z,41
2022-11-29T11:07:07.007Z,41
2022-11-29T11:08:09.000Z,42
2022-11-29T11:09:09.971Z,42
2022-11-29T11:10:11.979Z,42
2022-11-29T11:11:13.924Z,41
2022-11-29T11:12:15.058Z,42
2022-11-29T11:13:17.020Z,42
2022-11-29T11:14:19.760Z,42
2022-11-29T11:15:21.881Z,42
2022-11-29T11:16:23.303Z,42
2022-11-29T11:17:25.180Z,41
2022-11-29T11:18:27.639Z,40
2022-11-29T11:19:29.050Z,42
2022-11-29T11:20:31.641Z,41
2022-11-29T11:21:33.559Z,39
2022-11-29T11:22:36.159Z,39
2022-11-29T11:23:42.478Z,39
2022-11-29T11:24:40.276Z,38
2022-11-29T11:25:41.917Z,39
2022-11-29T11:26:42.980Z,38
2022-11-29T11:27:44.021Z,39
2022-11-29T11:28:45.080Z,39
2022-11-29T11:29:48.334Z,38
2022-11-29T11:30:50.486Z,39
2022-11-29T11:31:52.100Z,40
2022-11-29T11:32:53.960Z,39
2022-11-29T11:33:55.020Z,39
2022-11-29T11:34:57.021Z,39
2022-11-29T11:35:58.920Z,40
2022-11-29T11:37:00.380Z,41
2022-11-29T11:38:01.979Z,39
2022-11-29T11:39:03.080Z,40
2022-11-29T11:40:05.155Z,37
2022-11-29T11:41:07.080Z,38
2022-11-29T11:42:09.019Z,37
2022-11-29T11:43:11.059Z,38
2022-11-29T11:44:15.210Z,38
2022-11-29T11:45:15.020Z,39
2022-11-29T11:46:18.048Z,39
2022-11-29T11:47:18.317Z,39
2022-11-29T11:48:20.040Z,41
2022-11-29T11:49:22.440Z,42
2022-11-29T11:50:23.961Z,38
2022-11-29T11:51:25.162Z,39
2022-11-29T11:52:27.044Z,40
2022-11-29T11:53:28.961Z,39
2022-11-29T11:54:30.120Z,40
2022-11-29T11:55:32.054Z,40
2022-11-29T11:56:34.060Z,41
2022-11-29T11:57:36.140Z,40
2022-11-29T11:58:37.990Z,41
2022-11-29T11:59:38.999Z,39
2022-11-29T12:01:02.766Z,40
2022-11-29T12:01:42.040Z,39
2022-11-29T12:02:44.070Z,41
2022-11-29T12:03:46.039Z,41
2022-11-29T12:04:48.059Z,40
2022-11-29T12:05:50.063Z,40
2022-11-29T12:06:52.433Z,40
2022-11-29T12:08:09.780Z,40
2022-11-29T12:08:55.960Z,39
2022-11-29T12:09:57.103Z,-1
2022-11-29T12:11:02.760Z,39
2022-11-29T12:12:00.960Z,40
2022-11-29T12:13:02.083Z,40
2022-11-29T12:14:04.039Z,41
2022-11-29T12:15:05.000Z,40
2022-11-29T12:16:06.024Z,42
2022-11-29T12:17:07.080Z,42
2022-11-29T12:18:08.941Z,39
2022-11-29T12:19:09.968Z,38
2022-11-29T12:20:11.019Z,40
2022-11-29T12:21:12.017Z,38
2022-11-29T12:22:12.951Z,38
2022-11-29T12:23:14.522Z,40
2022-11-29T12:24:16.007Z,38
2022-11-29T12:25:18.447Z,39
2022-11-29T12:26:48.768Z,40
2022-11-29T12:27:22.003Z,39
2022-11-29T12:28:23.019Z,39
2022-11-29T12:29:23.965Z,39
2022-11-29T12:30:25.548Z,40
2022-11-29T12:31:27.100Z,40
2022-11-29T12:32:29.024Z,40
2022-11-29T12:33:31.021Z,40
2022-11-29T12:34:33.377Z,40
2022-11-29T12:35:35.539Z,40
2022-11-29T12:36:37.073Z,38
2022-11-29T12:37:39.061Z,40
2022-11-29T12:38:41.141Z,39
2022-11-29T12:39:43.003Z,38
2022-11-29T12:40:44.069Z,38
2022-11-29T12:41:49.582Z,38
2022-11-29T12:42:48.075Z,38
2022-11-29T12:43:50.112Z,39
2022-11-29T12:44:52.055Z,41
2022-11-29T12:45:53.987Z,41
2022-11-29T12:47:07.266Z,39
2022-11-29T12:47:57.040Z,38
2022-11-29T12:48:59.042Z,38
2022-11-29T12:50:01.121Z,39
2022-11-29T12:51:03.100Z,39
2022-11-29T12:52:05.079Z,40
2022-11-29T12:53:07.029Z,40
2022-11-29T12:54:09.040Z,40
2022-11-29T12:55:11.394Z,39
2022-11-29T12:56:13.042Z,38
2022-11-29T12:57:13.939Z,38
2022-11-29T12:58:15.002Z,38
2022-11-29T12:59:16.026Z,39
2022-11-29T13:00:17.441Z,39
2022-11-29T13:01:19.116Z,37
2022-11-29T13:02:21.149Z,38
2022-11-29T13:03:22.006Z,39
2022-11-29T13:04:23.160Z,39
2022-11-29T13:05:24.983Z,41
2022-11-29T13:06:26.396Z,41
2022-11-29T13:07:28.039Z,40
2022-11-29T13:08:30.021Z,40
2022-11-29T13:09:31.044Z,39
2022-11-29T13:10:33.142Z,40
2022-11-29T13:11:35.101Z,40
2022-11-29T13:12:37.148Z,40
2022-11-29T13:13:39.380Z,40
2022-11-29T13:14:43.282Z,41
2022-11-29T13:15:43.178Z,40
2022-11-29T13:16:45.024Z,40
2022-11-29T13:17:46.120Z,39
2022-11-29T13:18:48.300Z,38
2022-11-29T13:19:50.023Z,38
2022-11-29T13:20:51.095Z,38
2022-11-29T13:21:53.089Z,38
2022-11-29T13:22:55.393Z,40
2022-11-29T13:24:12.418Z,40
2022-11-29T13:24:59.021Z,38
2022-11-29T13:26:00.001Z,38
2022-11-29T13:27:00.996Z,39
2022-11-29T13:28:02.850Z,39
2022-11-29T13:29:04.085Z,37
2022-11-29T13:30:05.053Z,37
2022-11-29T13:31:07.180Z,37
2022-11-29T13:32:14.359Z,38
2022-11-29T13:33:11.333Z,37
2022-11-29T13:34:13.220Z,38
2022-11-29T13:35:15.087Z,39
2022-11-29T13:36:16.059Z,39
2022-11-29T13:37:18.001Z,37
2022-11-29T13:38:20.080Z,37
2022-11-29T13:39:22.081Z,35
2022-11-29T13:40:23.073Z,35
2022-11-29T13:41:25.401Z,36
2022-11-29T13:42:27.140Z,36
2022-11-29T13:43:30.550Z,37
2022-11-29T13:44:31.007Z,37
2022-11-29T13:45:32.021Z,38
2022-11-29T13:46:34.061Z,38
2022-11-29T13:47:35.052Z,35
2022-11-29T13:48:37.100Z,34
2022-11-29T13:49:39.141Z,34
2022-11-29T13:50:41.101Z,34
2022-11-29T13:51:43.048Z,35
2022-11-29T13:52:44.401Z,36
2022-11-29T13:53:49.034Z,37
2022-11-29T13:54:48.239Z,34
2022-11-29T13:55:50.005Z,34
2022-11-29T13:56:52.118Z,33
2022-11-29T13:58:15.898Z,34
2022-11-29T13:58:56.028Z,35
2022-11-29T13:59:57.140Z,38
2022-11-29T14:00:59.051Z,39
2022-11-29T14:02:01.230Z,39
2022-11-29T14:03:03.220Z,37
2022-11-29T14:04:05.099Z,38
2022-11-29T14:05:07.200Z,37
2022-11-29T14:06:09.147Z,35
2022-11-29T14:07:11.159Z,34
2022-11-29T14:08:17.747Z,34
2022-11-29T14:09:19.519Z,34
2022-11-29T14:10:17.114Z,33
2022-11-29T14:11:19.220Z,30
2022-11-29T14:12:21.080Z,30
2022-11-29T14:13:22.021Z,30
2022-11-29T14:14:23.044Z,30
2022-11-29T14:15:25.083Z,30
2022-11-29T14:16:27.169Z,30
2022-11-29T14:17:29.181Z,30
2022-11-29T14:18:31.049Z,29
2022-11-29T14:19:34.148Z,29
2022-11-29T14:20:35.380Z,29
2022-11-29T14:21:37.322Z,30
2022-11-29T14:22:39.021Z,32
2022-11-29T14:23:40.001Z,30
2022-11-29T14:24:41.019Z,30
2022-11-29T14:25:57.499Z,30
2022-11-29T14:26:44.599Z,30
2022-11-29T14:27:46.624Z,29
2022-11-29T14:28:48.181Z,29
2022-11-29T14:29:50.174Z,30
2022-11-29T14:30:52.295Z,30
2022-11-29T14:31:54.013Z,30
2022-11-29T14:32:56.163Z,29
2022-11-29T14:33:58.085Z,29
2022-11-29T14:34:59.321Z,30
2022-11-29T14:36:01.093Z,30
2022-11-29T14:37:03.153Z,30
2022-11-29T14:38:05.061Z,30
2022-11-29T14:39:07.231Z,30
2022-11-29T14:40:09.180Z,30
2022-11-29T14:41:11.182Z,29
2022-11-29T14:42:13.160Z,30